Terminal Aerodrome Forecast
Issued by NWS

Home | Current Version | Previous Version | Graphics & Text | Print | Product List | Glossary On
Versions: 1 2 3 4 5 6 7 8 9 10 11 12 13 14 15 16 17 18 19 20 21 22
000
FTUS43 KFGF 240153 AAA
TAFBJI
TAF AMD
KBJI 240153Z 2402/2424 12006KT P6SM OVC050
      TEMPO 2402/2403 5SM -DZ BR OVC008
     FM240300 VRB03KT P6SM OVC010
     FM240900 34005KT 3SM BR BKN006
     FM241100 35007KT 1SM BR BKN005
     FM241700 36008KT P6SM BKN025=

USA.gov is the U.S. government's official web portal to all federal, state and local government web resources and services.